Time;durP1;ratioP1;P1;durP2;ratioP2;P2;SDS_P1;SDS_P2;PMS_P1;PMS_P2;Temp;Humidity;BMP_temperature;BMP_pressure;BME280_temperature;BME280_humidity;BME280_pressure;Samples;Min_cycle;Max_cycle;Signal;HPM_P1;HPM_P2
2022/05/30 00:00:45;;;;;;;11.13;10.20;;;;;;;14.21;100.00;92186.88;5069631;28;20255;-74
2022/05/30 00:03:11;;;;;;;11.40;10.60;;;;;;;14.28;100.00;92177.47;5070186;28;20269;-74
2022/05/30 00:05:41;;;;;;;11.60;10.80;;;;;;;14.52;100.00;92191.94;5069057;28;20760;-74
2022/05/30 00:08:07;;;;;;;12.17;11.27;;;;;;;14.15;100.00;92172.31;5070777;28;20243;-74
2022/05/30 00:10:33;;;;;;;12.90;11.97;;;;;;;14.39;100.00;92183.94;5069548;28;20221;-74
2022/05/30 00:12:58;;;;;;;12.27;11.23;;;;;;;14.09;100.00;92176.97;5070530;28;20193;-73
2022/05/30 00:15:24;;;;;;;14.60;13.23;;;;;;;14.33;100.00;92192.28;5069665;28;20904;-75
2022/05/30 00:17:53;;;;;;;12.90;11.60;;;;;;;14.40;100.00;92187.31;5070669;28;20830;-74
2022/05/30 00:20:19;;;;;;;14.80;13.40;;;;;;;14.52;100.00;92203.22;5068999;28;20289;-73
2022/05/30 00:22:44;;;;;;;15.53;13.17;;;;;;;14.43;100.00;92191.94;5070757;28;20185;-74
2022/05/30 00:25:10;;;;;;;15.30;13.80;;;;;;;14.38;100.00;92198.13;5070792;28;20186;-74
2022/05/30 00:27:35;;;;;;;15.57;14.07;;;;;;;14.35;100.00;92192.72;5069655;28;20201;-73
2022/05/30 00:30:01;;;;;;;17.03;12.57;;;;;;;14.41;100.00;92194.88;5052417;28;20221;-74
2022/05/30 00:32:26;;;;;;;14.67;13.20;;;;;;;14.45;100.00;92192.41;5068763;28;20208;-74
2022/05/30 00:34:52;;;;;;;15.53;12.97;;;;;;;14.42;100.00;92188.56;5070084;28;20177;-73
2022/05/30 00:37:18;;;;;;;14.53;13.07;;;;;;;14.49;100.00;92188.84;5069696;28;20252;-74
2022/05/30 00:39:43;;;;;;;15.93;14.27;;;;;;;14.47;100.00;92180.50;5069383;28;20205;-73
2022/05/30 00:42:17;;;;;;;15.53;13.93;;;;;;;14.58;100.00;92180.19;5070096;28;20228;-74
2022/05/30 00:44:45;;;;;;;17.13;15.33;;;;;;;14.64;100.00;92202.56;5069500;28;20185;-74
2022/05/30 00:47:10;;;;;;;17.83;14.77;;;;;;;14.72;100.00;92204.41;5069803;28;20229;-73
2022/05/30 00:49:38;;;;;;;16.43;14.73;;;;;;;14.77;100.00;92206.88;5069138;28;20217;-74
2022/05/30 00:52:07;;;;;;;21.03;16.87;;;;;;;14.64;100.00;92215.72;5069328;28;20236;-73
2022/05/30 00:54:37;;;;;;;18.23;16.33;;;;;;;14.38;100.00;92208.63;5069703;28;20239;-73
2022/05/30 00:57:20;;;;;;;17.17;15.43;;;;;;;14.14;100.00;92210.16;5069215;28;20280;-73
2022/05/30 00:59:50;;;;;;;19.60;15.60;;;;;;;13.99;100.00;92198.28;5067278;28;20181;-73
2022/05/30 01:02:15;;;;;;;19.43;15.53;;;;;;;14.04;100.00;92185.00;5068604;28;20233;-74
2022/05/30 01:07:25;;;;;;;16.47;14.53;;;;;;;14.03;100.00;92195.81;5068298;28;20251;-73
2022/05/30 01:09:55;;;;;;;13.80;12.50;;;;;;;13.71;100.00;92194.38;5069069;28;20221;-74
2022/05/30 01:12:49;;;;;;;14.63;13.17;;;;;;;13.58;100.00;92192.69;5068643;28;20221;-73
2022/05/30 01:15:16;;;;;;;15.20;13.73;;;;;;;13.55;100.00;92190.69;5068373;28;20200;-74
2022/05/30 01:17:54;;;;;;;13.67;12.37;;;;;;;13.62;100.00;92191.00;5069753;28;20185;-74
2022/05/30 01:21:04;;;;;;;15.40;13.80;;;;;;;13.61;100.00;92199.94;5067206;28;20240;-74
2022/05/30 01:23:29;;;;;;;17.40;15.37;;;;;;;13.54;100.00;92183.13;5050678;28;20193;-74
2022/05/30 01:26:22;;;;;;;16.37;14.77;;;;;;;13.58;100.00;92194.53;5068513;28;20233;-75
2022/05/30 01:29:09;;;;;;;16.70;14.23;;;;;;;13.59;100.00;92199.47;5068992;28;20200;-74
2022/05/30 01:31:34;;;;;;;17.27;15.37;;;;;;;13.52;100.00;92199.16;5068515;28;20308;-74
2022/05/30 01:34:00;;;;;;;14.73;13.23;;;;;;;13.45;100.00;92201.44;5068315;28;20182;-74
2022/05/30 01:36:29;;;;;;;16.60;13.67;;;;;;;13.42;100.00;92207.31;5067626;28;20217;-74
2022/05/30 01:38:54;;;;;;;15.40;13.43;;;;;;;13.46;100.00;92208.25;5068873;28;20656;-74
2022/05/30 01:41:20;;;;;;;14.00;12.53;;;;;;;13.50;100.00;92213.63;5067814;28;20240;-75
2022/05/30 01:43:46;;;;;;;14.63;13.30;;;;;;;13.15;100.00;92183.19;5067760;28;20196;-74
2022/05/30 01:46:18;;;;;;;15.30;13.43;;;;;;;13.27;100.00;92210.34;5068188;28;20232;-74
2022/05/30 01:48:45;;;;;;;15.17;13.17;;;;;;;13.19;100.00;92205.84;5067492;28;20249;-74
2022/05/30 01:51:12;;;;;;;15.53;13.90;;;;;;;13.11;100.00;92196.09;5068701;28;20255;-74
2022/05/30 01:53:38;;;;;;;16.23;14.63;;;;;;;13.08;100.00;92211.66;5067113;28;20205;-75
2022/05/30 01:56:04;;;;;;;17.00;14.30;;;;;;;12.91;100.00;92204.47;5067809;28;20236;-74
2022/05/30 01:58:32;;;;;;;14.77;13.27;;;;;;;13.02;100.00;92218.91;5069018;28;20177;-74
2022/05/30 02:01:02;;;;;;;14.20;12.83;;;;;;;13.10;100.00;92220.00;5067457;28;20233;-74
2022/05/30 02:03:27;;;;;;;14.57;13.27;;;;;;;13.06;100.00;92214.59;5067137;28;20174;-74
2022/05/30 02:05:53;;;;;;;13.77;12.30;;;;;;;13.28;100.00;92214.50;5067239;28;20228;-74
2022/05/30 02:08:21;;;;;;;14.20;12.93;;;;;;;13.04;100.00;92206.28;5069386;28;20204;-74
2022/05/30 02:10:48;;;;;;;14.30;12.87;;;;;;;12.90;100.00;92221.28;5068057;28;20316;-74
2022/05/30 02:13:14;;;;;;;15.10;13.67;;;;;;;12.94;100.00;92209.13;5068766;28;20177;-74
2022/05/30 02:18:23;;;;;;;14.17;12.97;;;;;;;13.17;100.00;92228.97;5068651;28;20253;-74
2022/05/30 02:20:49;;;;;;;14.90;13.23;;;;;;;13.07;100.00;92241.56;5068027;28;20221;-74
2022/05/30 02:23:16;;;;;;;14.77;13.47;;;;;;;13.22;100.00;92209.69;5068098;28;20249;-74
2022/05/30 02:25:41;;;;;;;16.17;13.40;;;;;;;13.31;100.00;92215.78;5067152;28;20241;-74
2022/05/30 02:28:07;;;;;;;15.13;13.37;;;;;;;13.38;100.00;92242.31;5068692;28;20196;-75
2022/05/30 02:30:32;;;;;;;15.30;13.80;;;;;;;13.26;100.00;92235.00;5067828;28;20221;-74
2022/05/30 02:36:38;;;;;;;21.00;13.33;;;;;;;12.97;100.00;92242.56;5068100;28;20194;-74
2022/05/30 02:38:27;;;;;;;14.87;13.47;;;;;;;12.82;100.00;92229.88;5068468;28;20204;-74
2022/05/30 02:40:53;;;;;;;18.60;14.37;;;;;;;13.06;100.00;92246.03;5067405;28;20225;-75
2022/05/30 02:43:18;;;;;;;15.43;13.57;;;;;;;13.04;100.00;92236.94;5067847;28;20202;-74
2022/05/30 02:45:44;;;;;;;14.97;13.57;;;;;;;12.93;100.00;92242.38;5066812;28;20225;-75
2022/05/30 02:48:10;;;;;;;14.77;13.30;;;;;;;12.76;100.00;92241.56;5068262;28;20232;-74
2022/05/30 02:50:35;;;;;;;14.73;12.37;;;;;;;12.61;100.00;92244.53;5067875;28;20244;-75
2022/05/30 02:53:01;;;;;;;14.20;12.67;;;;;;;12.68;100.00;92242.28;5068142;28;20840;-74
2022/05/30 02:55:26;;;;;;;12.33;11.37;;;;;;;12.77;100.00;92253.56;5067314;28;20225;-74
2022/05/30 02:57:52;;;;;;;12.97;11.73;;;;;;;12.45;100.00;92211.94;5068453;28;20185;-74
2022/05/30 03:00:18;;;;;;;11.83;10.83;;;;;;;12.72;100.00;92257.09;5069216;28;20232;-74
2022/05/30 03:02:43;;;;;;;11.33;10.30;;;;;;;12.53;100.00;92258.34;5071537;28;20211;-74
2022/05/30 03:05:09;;;;;;;11.87;10.90;;;;;;;12.61;100.00;92260.25;5070145;28;20221;-74
2022/05/30 03:07:36;;;;;;;11.70;10.63;;;;;;;12.63;100.00;92274.59;5072209;28;20189;-75
2022/05/30 03:10:02;;;;;;;12.60;11.60;;;;;;;12.86;100.00;92273.50;5071586;28;20295;-75
2022/05/30 03:12:27;;;;;;;13.43;12.43;;;;;;;12.75;100.00;92261.72;5071937;28;20200;-74
2022/05/30 03:14:52;;;;;;;11.43;10.33;;;;;;;12.89;100.00;92282.59;5071407;28;20189;-74
2022/05/30 03:17:18;;;;;;;12.17;11.27;;;;;;;13.05;100.00;92296.91;5071093;28;20229;-74
2022/05/30 03:19:43;;;;;;;12.43;11.17;;;;;;;13.12;100.00;92297.22;5071777;28;20193;-74
2022/05/30 03:22:09;;;;;;;12.00;10.83;;;;;;;12.74;100.00;92306.56;5068761;28;20246;-75
2022/05/30 03:24:34;;;;;;;11.17;10.37;;;;;;;12.89;100.00;92308.78;5071854;28;20205;-75
2022/05/30 03:27:00;;;;;;;10.80;10.00;;;;;;;12.99;100.00;92308.56;5069781;28;20244;-75
2022/05/30 03:29:25;;;;;;;11.17;10.37;;;;;;;12.87;100.00;92310.97;5070226;28;20205;-74
2022/05/30 03:31:50;;;;;;;12.23;11.10;;;;;;;12.80;100.00;92321.06;5070517;28;20225;-74
2022/05/30 03:34:16;;;;;;;10.27;9.43;;;;;;;13.01;100.00;92322.19;5072149;28;20174;-74
2022/05/30 03:36:42;;;;;;;11.77;10.77;;;;;;;13.35;100.00;92335.47;5070563;28;20232;-75
2022/05/30 03:39:07;;;;;;;10.80;10.00;;;;;;;13.45;100.00;92332.56;5068165;28;20249;-74
2022/05/30 03:41:33;;;;;;;11.03;10.30;;;;;;;13.37;100.00;92341.16;5069284;28;20236;-74
2022/05/30 03:44:00;;;;;;;11.73;10.83;;;;;;;13.47;100.00;92340.91;5069575;28;20189;-74
2022/05/30 03:46:27;;;;;;;11.73;10.90;;;;;;;13.81;99.34;92341.03;5079056;28;20244;-74
2022/05/30 03:48:53;;;;;;;11.63;10.73;;;;;;;14.25;94.72;92340.88;5068902;28;20185;-86
2022/05/30 03:51:18;;;;;;;12.37;11.20;;;;;;;14.22;97.46;92354.59;5069501;28;20236;-77
2022/05/30 03:53:44;;;;;;;12.20;11.00;;;;;;;13.99;100.00;92357.63;5071312;28;20186;-79
2022/05/30 03:56:11;;;;;;;13.03;11.93;;;;;;;14.05;99.89;92344.06;5067807;28;20234;-80
2022/05/30 03:58:37;;;;;;;12.53;11.33;;;;;;;14.09;100.00;92365.97;5070662;28;20192;-80
2022/05/30 04:01:05;;;;;;;11.13;10.33;;;;;;;14.14;100.00;92360.59;5067972;28;20217;-79
2022/05/30 04:03:31;;;;;;;11.47;10.47;;;;;;;14.24;100.00;92355.06;5070434;28;20190;-77
2022/05/30 04:05:56;;;;;;;11.77;10.87;;;;;;;14.36;100.00;92372.84;5066990;28;20212;-81
2022/05/30 04:08:22;;;;;;;12.53;11.50;;;;;;;14.49;100.00;92377.97;5070099;28;20182;-80
2022/05/30 04:10:47;;;;;;;13.50;12.20;;;;;;;14.40;100.00;92377.19;5068137;28;21767;-77
2022/05/30 04:13:13;;;;;;;13.13;11.93;;;;;;;14.60;99.41;92372.44;5069807;28;20177;-76
2022/05/30 04:15:38;;;;;;;13.93;12.73;;;;;;;14.67;98.56;92378.75;5069238;28;20244;-77
2022/05/30 04:18:05;;;;;;;14.13;12.87;;;;;;;14.72;95.43;92381.25;5069791;28;20181;-82
2022/05/30 04:20:30;;;;;;;14.20;12.93;;;;;;;14.76;96.49;92382.16;5068240;28;20778;-75
2022/05/30 04:22:55;;;;;;;12.43;11.33;;;;;;;14.93;95.72;92381.38;5069721;28;20196;-82
2022/05/30 04:25:22;;;;;;;13.17;11.87;;;;;;;14.54;98.55;92384.16;5068838;28;20229;-77
2022/05/30 04:27:47;;;;;;;14.20;12.93;;;;;;;14.94;97.78;92399.47;5069954;28;20178;-79
2022/05/30 04:30:12;;;;;;;14.90;13.40;;;;;;;15.23;94.79;92401.47;5069138;28;20273;-78
2022/05/30 04:32:38;;;;;;;15.73;14.13;;;;;;;15.33;94.58;92380.88;5069153;28;20185;-76
2022/05/30 04:35:05;;;;;;;18.43;14.60;;;;;;;15.69;92.41;92407.59;5069504;28;20199;-75
2022/05/30 04:37:31;;;;;;;15.77;14.17;;;;;;;15.99;88.41;92405.81;5069025;28;20253;-73
2022/05/30 04:39:57;;;;;;;16.57;14.97;;;;;;;16.02;88.91;92386.75;5068422;28;20244;-76
2022/05/30 04:42:22;;;;;;;16.47;14.83;;;;;;;16.72;86.82;92392.13;5067156;28;20287;-77
2022/05/30 04:44:48;;;;;;;16.67;14.90;;;;;;;16.93;85.00;92405.31;5070075;28;20193;-83
2022/05/30 04:47:13;;;;;;;15.13;13.60;;;;;;;17.36;82.86;92403.88;5070981;28;20229;-81
2022/05/30 04:49:39;;;;;;;16.10;14.57;;;;;;;17.30;83.47;92405.16;5068977;28;20208;-79
2022/05/30 04:52:05;;;;;;;16.70;15.07;;;;;;;17.29;82.48;92384.38;5068817;28;20226;-79
2022/05/30 04:54:30;;;;;;;25.90;14.10;;;;;;;17.53;81.08;92409.00;5069281;28;20193;-73
2022/05/30 04:56:56;;;;;;;18.10;15.00;;;;;;;17.58;80.99;92411.47;5068711;28;20247;-80
2022/05/30 04:59:21;;;;;;;15.40;13.80;;;;;;;17.46;81.14;92416.69;5068345;28;20193;-77
2022/05/30 05:01:47;;;;;;;16.00;14.43;;;;;;;17.59;81.35;92418.28;5068463;28;20263;-78
2022/05/30 05:04:12;;;;;;;15.97;14.47;;;;;;;17.58;81.31;92411.47;5068643;28;20253;-79
2022/05/30 05:06:39;;;;;;;16.83;15.23;;;;;;;17.78;79.49;92414.34;5068870;28;20217;-78
2022/05/30 05:09:24;;;;;;;15.50;14.10;;;;;;;17.90;80.69;92427.59;5068327;28;20215;-84
2022/05/30 05:11:50;;;;;;;18.07;13.47;;;;;;;17.66;79.08;92427.53;5068004;28;20232;-77
2022/05/30 05:14:16;;;;;;;13.30;12.27;;;;;;;17.43;80.01;92429.75;5067274;28;20189;-81
2022/05/30 05:16:42;;;;;;;13.93;12.63;;;;;;;17.20;81.13;92431.94;5067342;28;20228;-78
2022/05/30 05:19:09;;;;;;;14.83;13.40;;;;;;;17.08;82.12;92434.53;5052093;28;20185;-78
2022/05/30 05:21:37;;;;;;;15.10;13.47;;;;;;;17.21;80.20;92422.91;5068827;28;20243;-75
2022/05/30 05:24:05;;;;;;;15.20;13.90;;;;;;;17.47;78.57;92447.28;5068481;28;20220;-78
2022/05/30 05:26:31;;;;;;;16.60;14.90;;;;;;;18.03;77.08;92448.44;5067491;28;20219;-78
2022/05/30 05:28:57;;;;;;;17.50;14.33;;;;;;;18.98;73.00;92422.34;5065503;28;20174;-78
2022/05/30 05:31:34;;;;;;;16.63;14.57;;;;;;;19.99;69.08;92458.88;5068590;28;20213;-73
2022/05/30 05:34:02;;;;;;;15.57;14.03;;;;;;;22.46;60.14;92465.06;5067105;28;20241;-71
2022/05/30 05:36:31;;;;;;;13.50;12.20;;;;;;;23.80;51.84;92452.59;5068091;28;20214;-74
2022/05/30 05:38:57;;;;;;;14.13;12.87;;;;;;;25.31;48.19;92475.41;5067126;28;20185;-73
2022/05/30 05:41:23;;;;;;;14.47;12.90;;;;;;;22.48;55.80;92457.47;5067455;28;20236;-72
2022/05/30 05:43:49;;;;;;;12.80;11.80;;;;;;;24.60;50.92;92473.28;5067544;28;20180;-71
2022/05/30 05:46:17;;;;;;;13.63;12.18;;;;;;;23.31;53.70;92478.63;5068381;28;20237;-72
2022/05/30 05:48:42;;;;;;;13.80;12.10;;;;;;;23.33;53.09;92463.78;5068511;28;20210;-73
2022/05/30 05:51:08;;;;;;;13.40;12.20;;;;;;;25.15;48.40;92469.56;5067429;28;20321;-72
2022/05/30 05:53:34;;;;;;;13.75;12.35;;;;;;;28.17;40.67;92478.16;5068798;28;20201;-73
2022/05/30 05:56:28;;;;;;;23.67;15.85;;;;;;;28.07;40.61;92489.69;5066398;28;20235;-72
2022/05/30 05:58:53;;;;;;;15.05;12.95;;;;;;;25.13;47.70;92483.31;5067506;28;20191;-72
2022/05/30 06:01:24;;;;;;;11.95;11.00;;;;;;;23.93;49.69;92469.13;5067695;28;20287;-73
2022/05/30 06:03:54;;;;;;;13.43;12.35;;;;;;;21.92;56.75;92467.88;5066719;28;20193;-72
2022/05/30 06:06:21;;;;;;;12.75;11.55;;;;;;;21.33;59.66;92473.50;5068530;28;20243;-74
2022/05/30 06:08:46;;;;;;;12.88;11.70;;;;;;;20.85;60.10;92462.50;5068056;28;20217;-73
2022/05/30 06:11:12;;;;;;;13.65;12.32;;;;;;;21.33;58.21;92480.69;5067764;28;20228;-73
2022/05/30 06:13:39;;;;;;;15.15;13.60;;;;;;;20.43;60.88;92472.88;5068682;28;20222;-73
2022/05/30 06:16:14;;;;;;;14.23;12.90;;;;;;;19.80;63.11;92476.53;5067457;28;20271;-72
2022/05/30 06:18:40;;;;;;;17.33;15.00;;;;;;;19.49;64.96;92471.88;5068591;28;20193;-72
2022/05/30 06:21:06;;;;;;;16.93;14.70;;;;;;;19.17;69.22;92476.22;5067955;28;20224;-72
2022/05/30 06:23:32;;;;;;;15.97;13.57;;;;;;;18.84;71.77;92488.84;5067727;28;20207;-72
2022/05/30 06:26:01;;;;;;;16.43;14.63;;;;;;;18.59;69.81;92492.59;5067981;28;20238;-72
2022/05/30 06:28:28;;;;;;;16.00;14.30;;;;;;;18.48;72.08;92491.47;5068415;28;20219;-72
2022/05/30 06:30:53;;;;;;;15.73;14.07;;;;;;;19.09;73.05;92486.94;5066061;28;20245;-73
2022/05/30 06:33:19;;;;;;;15.70;14.10;;;;;;;19.38;72.02;92491.22;5068368;28;20191;-73
2022/05/30 06:35:47;;;;;;;20.60;14.73;;;;;;;18.01;73.97;92492.88;5070919;28;20225;-72
2022/05/30 06:38:13;;;;;;;15.23;13.70;;;;;;;19.63;69.23;92498.75;5071475;28;20288;-72
2022/05/30 06:40:40;;;;;;;14.93;13.60;;;;;;;19.93;66.25;92496.53;5070632;28;20220;-72
2022/05/30 06:43:06;;;;;;;16.40;14.63;;;;;;;19.74;67.80;92501.69;5071607;28;20190;-71
2022/05/30 06:45:33;;;;;;;15.53;14.00;;;;;;;20.11;65.48;92508.41;5070220;28;20239;-71
2022/05/30 06:47:59;;;;;;;17.87;14.27;;;;;;;20.10;66.26;92499.69;5071180;28;20227;-73
2022/05/30 06:50:27;;;;;;;16.97;15.13;;;;;;;20.02;67.65;92505.91;5071743;28;20252;-72
2022/05/30 06:52:53;;;;;;;16.20;14.10;;;;;;;19.73;68.65;92486.91;5071496;28;20188;-70
2022/05/30 06:55:19;;;;;;;15.57;13.97;;;;;;;19.50;69.73;92513.16;5072412;28;20325;-71
2022/05/30 07:00:30;;;;;;;15.77;14.17;;;;;;;19.38;71.84;92513.16;5070504;28;20225;-72
2022/05/30 07:02:56;;;;;;;18.37;13.93;;;;;;;19.51;70.66;92519.97;5071765;28;20272;-71
2022/05/30 07:05:22;;;;;;;16.70;14.97;;;;;;;19.45;69.59;92517.91;5071770;28;20234;-71
2022/05/30 07:07:48;;;;;;;17.80;14.73;;;;;;;19.19;71.50;92518.25;5070056;28;21249;-72
2022/05/30 07:10:14;;;;;;;18.27;15.07;;;;;;;18.80;73.65;92522.34;5070483;28;20220;-72
2022/05/30 07:12:39;;;;;;;17.43;15.33;;;;;;;18.83;73.99;92523.56;5071924;28;20260;-72
2022/05/30 07:15:06;;;;;;;20.27;14.93;;;;;;;19.54;72.01;92515.88;5070757;28;20194;-71
2022/05/30 07:17:31;;;;;;;18.43;15.47;;;;;;;20.35;69.46;92517.03;5070822;28;20191;-73
2022/05/30 07:19:57;;;;;;;18.30;15.50;;;;;;;21.05;64.47;92527.84;5070162;28;20184;-73
2022/05/30 07:22:24;;;;;;;17.77;15.37;;;;;;;20.75;64.71;92516.13;5071258;28;20191;-73
2022/05/30 07:24:49;;;;;;;18.00;16.20;;;;;;;20.00;68.84;92520.59;5071579;28;20175;-72
2022/05/30 07:27:15;;;;;;;20.33;14.57;;;;;;;20.13;67.81;92527.38;5070857;28;20208;-72
2022/05/30 07:29:40;;;;;;;15.70;14.20;;;;;;;21.43;63.77;92533.28;5069492;28;20243;-72
2022/05/30 07:32:06;;;;;;;19.77;15.13;;;;;;;20.14;68.04;92524.41;5070131;28;20326;-72
2022/05/30 07:34:32;;;;;;;18.40;15.87;;;;;;;20.50;68.26;92529.53;5068851;28;20193;-72
2022/05/30 07:36:59;;;;;;;15.57;13.97;;;;;;;21.48;63.06;92511.75;5070756;28;20220;-73
2022/05/30 07:39:25;;;;;;;19.23;14.70;;;;;;;21.28;64.96;92528.75;5069251;28;20210;-70
2022/05/30 07:41:51;;;;;;;16.47;14.77;;;;;;;21.75;63.12;92524.13;5068305;28;20224;-70
2022/05/30 07:44:17;;;;;;;14.75;13.15;;;;;;;22.09;59.75;92512.63;5069990;28;20190;-73
2022/05/30 07:46:45;;;;;;;14.50;13.18;;;;;;;20.90;63.61;92480.84;5070591;28;20220;-72
2022/05/30 07:49:12;;;;;;;15.70;13.98;;;;;;;20.26;66.58;92510.34;5068776;28;20238;-73
2022/05/30 07:51:38;;;;;;;19.90;15.27;;;;;;;20.76;68.46;92533.56;5068775;28;20224;-73
2022/05/30 07:54:04;;;;;;;18.30;15.32;;;;;;;21.27;62.70;92533.31;5069967;28;20243;-72
2022/05/30 07:56:30;;;;;;;15.93;14.30;;;;;;;21.67;63.33;92527.72;5071046;28;20236;-72
2022/05/30 07:58:55;;;;;;;23.13;15.17;;;;;;;20.64;66.06;92527.22;5069679;28;20199;-73
2022/05/30 08:01:21;;;;;;;15.87;14.37;;;;;;;20.40;67.67;92532.69;5069454;28;20251;-72
2022/05/30 08:03:50;;;;;;;16.03;14.33;;;;;;;20.58;66.13;92528.59;5070827;28;20194;-72
2022/05/30 08:06:19;;;;;;;16.25;14.00;;;;;;;21.41;64.37;92538.16;5069789;28;20233;-73
2022/05/30 08:08:45;;;;;;;15.95;14.30;;;;;;;20.92;66.80;92539.66;5070610;28;20211;-71
2022/05/30 08:11:12;;;;;;;18.50;15.30;;;;;;;20.40;67.03;92540.66;5070626;28;20263;-72
2022/05/30 08:13:37;;;;;;;17.45;15.23;;;;;;;20.88;67.60;92541.44;5069007;28;20195;-72
2022/05/30 08:16:04;;;;;;;16.17;14.57;;;;;;;20.44;67.05;92536.19;5069947;28;20237;-73
2022/05/30 08:18:31;;;;;;;17.00;14.60;;;;;;;20.84;67.26;92546.66;5071179;28;20188;-71
2022/05/30 08:20:57;;;;;;;15.05;12.75;;;;;;;20.81;67.81;92541.28;5068744;28;20224;-72
2022/05/30 08:23:23;;;;;;;15.33;13.77;;;;;;;21.23;63.75;92547.63;5068324;28;20186;-73
2022/05/30 08:25:50;;;;;;;14.47;13.07;;;;;;;20.96;63.95;92532.56;5068683;28;20266;-71
2022/05/30 08:28:15;;;;;;;15.05;13.43;;;;;;;21.31;65.40;92549.34;5070457;28;20207;-72
2022/05/30 08:30:41;;;;;;;16.55;13.98;;;;;;;21.24;65.91;92541.97;5067678;28;20219;-72
2022/05/30 08:33:12;;;;;;;17.00;14.65;;;;;;;20.64;66.73;92545.03;5070287;28;21133;-72
2022/05/30 08:35:38;;;;;;;16.75;15.02;;;;;;;21.40;65.24;92532.06;5067879;28;20224;-72
2022/05/30 08:38:04;;;;;;;17.52;14.32;;;;;;;21.37;66.01;92553.25;5067998;28;20188;-72
2022/05/30 08:43:31;;;;;;;15.50;13.93;;;;;;;21.77;64.42;92541.28;5069636;28;20212;-72
2022/05/30 08:46:16;;;;;;;15.65;13.10;;;;;;;21.45;62.82;92554.94;5066610;28;20235;-72
2022/05/30 08:48:55;;;;;;;13.85;12.35;;;;;;;21.81;61.54;92533.34;5069211;28;20192;-73
2022/05/30 08:51:58;;;;;;;14.38;12.98;;;;;;;20.96;66.33;92543.19;5068284;28;20242;-72
2022/05/30 08:54:42;;;;;;;21.20;15.27;;;;;;;21.31;65.49;92549.34;5066808;28;20211;-72
2022/05/30 08:57:20;;;;;;;13.38;12.05;;;;;;;22.25;62.17;92539.94;5067598;28;20224;-73
2022/05/30 09:00:04;;;;;;;13.63;12.32;;;;;;;21.26;61.71;92549.59;5069322;28;20181;-72
2022/05/30 09:02:55;;;;;;;17.20;13.17;;;;;;;20.66;64.59;92540.94;5068295;28;20262;-72
2022/05/30 09:05:37;;;;;;;17.30;13.80;;;;;;;21.29;63.72;92551.56;5067401;28;20727;-72
2022/05/30 09:08:07;;;;;;;14.07;12.57;;;;;;;21.34;64.04;92548.63;5068511;28;20192;-71
2022/05/30 09:10:41;;;;;;;14.00;12.70;;;;;;;21.30;65.88;92559.19;5067905;28;20240;-73
2022/05/30 09:13:29;;;;;;;15.57;13.98;;;;;;;20.42;66.70;92541.06;5068983;28;20216;-72
2022/05/30 09:16:03;;;;;;;13.85;12.48;;;;;;;20.85;65.85;92547.44;5068738;28;20217;-72
2022/05/30 09:18:53;;;;;;;15.38;13.88;;;;;;;21.28;64.37;92557.97;5068623;28;20252;-72
2022/05/30 09:21:21;;;;;;;13.57;12.40;;;;;;;21.28;62.68;92558.75;5063202;28;20258;-72
2022/05/30 09:23:48;;;;;;;15.00;12.40;;;;;;;21.13;61.48;92542.81;5068983;28;20185;-71
2022/05/30 09:26:25;;;;;;;15.82;12.27;;;;;;;20.79;63.67;92554.13;5068832;28;20231;-73
2022/05/30 09:28:55;;;;;;;14.48;13.05;;;;;;;21.17;64.00;92562.28;5067894;28;20207;-72
2022/05/30 09:31:21;;;;;;;12.95;11.82;;;;;;;20.86;64.24;92565.66;5068607;28;20222;-73
2022/05/30 09:33:58;;;;;;;12.68;11.57;;;;;;;20.96;64.30;92565.19;5068615;28;20188;-71
2022/05/30 09:36:29;;;;;;;13.07;11.90;;;;;;;21.52;61.42;92579.00;5067109;28;20288;-71
2022/05/30 09:39:02;;;;;;;13.40;12.30;;;;;;;21.61;62.17;92574.28;5067669;28;20235;-72
2022/05/30 09:41:46;;;;;;;14.43;11.70;;;;;;;21.59;63.62;92569.31;5068817;28;20225;-73
2022/05/30 09:44:18;;;;;;;12.43;11.23;;;;;;;21.51;62.01;92572.16;5066843;28;20183;-73
2022/05/30 09:46:58;;;;;;;12.25;11.32;;;;;;;21.30;61.78;92569.81;5067586;28;20347;-72
2022/05/30 09:49:26;;;;;;;13.25;11.68;;;;;;;21.48;61.53;92568.31;5068575;28;20221;-72
2022/05/30 09:51:53;;;;;;;12.80;11.55;;;;;;;21.37;63.21;92554.00;5067942;28;20219;-72
2022/05/30 09:54:24;;;;;;;13.05;11.70;;;;;;;21.37;64.13;92569.19;5066633;28;20191;-73
2022/05/30 09:56:59;;;;;;;14.20;12.73;;;;;;;21.19;64.02;92570.66;5069085;28;20225;-73
2022/05/30 09:59:25;;;;;;;12.93;11.73;;;;;;;21.14;62.34;92566.38;5068467;28;20202;-72
2022/05/30 10:01:52;;;;;;;13.05;12.00;;;;;;;21.64;60.47;92573.59;5068686;28;20344;-72
2022/05/30 10:04:42;;;;;;;13.13;11.93;;;;;;;21.74;60.12;92565.81;5065244;28;20284;-72
2022/05/30 10:07:16;;;;;;;18.77;12.00;;;;;;;21.59;62.90;92573.84;5067506;28;20232;-72
2022/05/30 10:10:03;;;;;;;12.93;11.65;;;;;;;21.90;63.91;92565.81;5070420;28;20212;-73
2022/05/30 10:12:42;;;;;;;17.50;14.85;;;;;;;21.56;62.82;92563.91;5072392;28;20220;-72
2022/05/30 10:15:31;;;;;;;13.48;12.32;;;;;;;21.90;62.43;92577.22;5073105;28;20192;-72
2022/05/30 10:18:43;;;;;;;13.98;11.65;;;;;;;22.16;60.42;92552.69;5072799;28;20228;-72
2022/05/30 10:21:26;;;;;;;13.90;12.25;;;;;;;21.72;61.08;92554.78;5033148;28;20252;-72
2022/05/30 10:30:05;;;;;;;13.40;12.20;;;;;;;21.92;61.75;92574.22;5070945;28;20336;-73
2022/05/30 10:33:05;;;;;;;13.65;12.38;;;;;;;22.46;58.42;92572.25;5072186;28;20194;-72
2022/05/30 10:35:42;;;;;;;13.25;12.07;;;;;;;22.16;60.90;92563.31;5070663;28;20238;-72
2022/05/30 10:38:33;;;;;;;13.68;12.40;;;;;;;22.32;60.38;92569.31;5071246;28;20192;-73
2022/05/30 10:41:21;;;;;;;17.48;12.70;;;;;;;22.01;62.95;92562.25;5071023;28;20222;-72
2022/05/30 10:44:08;;;;;;;13.90;12.57;;;;;;;22.36;59.08;92570.16;5071661;28;20280;-71
2022/05/30 10:46:39;;;;;;;13.63;12.30;;;;;;;22.55;60.36;92567.53;5070081;28;20231;-73
2022/05/30 10:49:14;;;;;;;12.52;11.27;;;;;;;22.41;60.41;92569.91;5070851;28;20214;-72
2022/05/30 10:52:01;;;;;;;13.02;11.82;;;;;;;22.45;58.10;92576.03;5069493;28;20269;-72
2022/05/30 10:54:43;;;;;;;20.02;11.63;;;;;;;22.37;58.23;92578.94;5070849;28;20192;-72
2022/05/30 10:57:29;;;;;;;11.95;10.85;;;;;;;22.41;56.10;92579.75;5071644;28;20250;-72
2022/05/30 11:00:04;;;;;;;12.15;11.05;;;;;;;22.45;58.83;92576.03;5070422;28;20193;-71
2022/05/30 11:02:38;;;;;;;12.18;11.15;;;;;;;22.67;55.57;92569.22;5071076;28;20231;-72
2022/05/30 11:05:21;;;;;;;12.65;11.35;;;;;;;22.16;58.35;92563.31;5070367;28;20294;-72
2022/05/30 11:08:12;;;;;;;11.85;10.85;;;;;;;22.62;57.84;92559.66;5071187;28;20190;-72
2022/05/30 11:10:56;;;;;;;11.95;10.95;;;;;;;22.30;58.04;92568.91;5070402;28;20243;-73
2022/05/30 11:13:52;;;;;;;16.58;11.50;;;;;;;22.06;59.47;92569.19;5070890;28;20240;-71
2022/05/30 11:16:46;;;;;;;12.52;11.43;;;;;;;22.07;59.36;92568.84;5069809;28;20264;-72
2022/05/30 11:19:41;;;;;;;11.23;10.38;;;;;;;22.38;59.56;92559.19;5071571;28;20182;-72
2022/05/30 11:22:17;;;;;;;12.25;11.25;;;;;;;22.41;57.30;92571.78;5038990;28;20242;-71
2022/05/30 11:24:49;;;;;;;12.77;11.05;;;;;;;22.44;57.82;92569.19;5069599;28;20189;-72
2022/05/30 11:27:15;;;;;;;12.10;10.85;;;;;;;22.69;55.16;92567.78;5069722;28;20226;-73
2022/05/30 11:30:06;;;;;;;11.80;10.80;;;;;;;22.53;57.34;92567.09;5071374;28;20243;-72
2022/05/30 11:32:34;;;;;;;13.18;11.15;;;;;;;22.23;57.50;92577.53;5070692;28;20215;-72
2022/05/30 11:35:24;;;;;;;12.40;11.23;;;;;;;22.44;59.27;92565.75;5069849;28;20202;-72
2022/05/30 11:38:20;;;;;;;12.00;10.75;;;;;;;22.88;57.72;92564.28;5070308;28;20195;-72
2022/05/30 11:41:00;;;;;;;13.77;11.52;;;;;;;23.05;56.36;92567.22;5068951;28;20245;-71
2022/05/30 11:43:52;;;;;;;12.35;11.25;;;;;;;23.16;54.40;92564.75;5070959;28;20184;-72
2022/05/30 11:46:38;;;;;;;12.30;11.07;;;;;;;22.84;54.73;92555.47;5070202;28;20240;-73
2022/05/30 11:49:26;;;;;;;11.95;10.95;;;;;;;23.07;54.67;92566.88;5069789;28;20218;-70